Archival Weather

Chicago O'Hare International

Chicago, Illinois (KORD)

Report from: Friday, September 23, 2022 5:51 PM CDT
Current time: Sunday, December 4, 2022 5:45 AM CST

Current weather
Weather history
Weather forecast

Temperature15.6°C (60.1°F)
Dew point3.3°C (37.9°F)
Winds 8 kts (4.1 m/s, 9.2 mph) South (170°)
Visibility10 mi. (16.1 km)
Clouds Few clouds 3,000 ft. (914 m)
Few clouds 9,500 ft. (2,896 m)
Ceiling: Broken clouds 11,000 ft. (3,353 m)
Overcast 15,000 ft. (4,572 m)
Altimeter30.10 in.Hg (1019 mB)
Relative humidity44 %
Density altitude-17 ft. (-5 m)
Sea-level pressure101.9 kPa (1019 mB, 30.10 in.Hg)
Remarks Automated weather observing station with precipitation discriminator
Flight conditions Visual Meteorological Conditions
Raw dataKORD 232251Z 17008KT 10SM FEW030 FEW095 BKN110 OVC150 16/03 A3010 RMK AO2 SLP192 T01560033
An error has occurred. This application may no longer respond until reloaded. Reload 🗙